Time;durP1;ratioP1;P1;durP2;ratioP2;P2;SDS_P1;SDS_P2;PMS_P1;PMS_P2;Temp;Humidity;BMP_temperature;BMP_pressure;BME280_temperature;BME280_humidity;BME280_pressure;Samples;Min_cycle;Max_cycle;Signal;HPM_P1;HPM_P2
2023/12/17 00:01:13;;;;;;;18.87;12.80;;;4.80;99.90;;;;;;10454318;28;20292;-83
2023/12/17 00:06:16;;;;;;;14.60;11.23;;;4.80;99.90;;;;;;10434047;28;20190;-82
2023/12/17 00:11:19;;;;;;;12.40;9.47;;;4.80;99.90;;;;;;10450540;28;20224;-83
2023/12/17 00:16:22;;;;;;;13.13;9.37;;;4.70;99.90;;;;;;10441194;28;20221;-83
2023/12/17 00:21:24;;;;;;;7.47;6.77;;;4.70;99.90;;;;;;10459689;28;20221;-83
2023/12/17 00:26:28;;;;;;;7.90;6.97;;;4.70;99.90;;;;;;10455457;28;20194;-83
2023/12/17 00:31:30;;;;;;;10.50;7.20;;;4.70;99.90;;;;;;10456328;28;20298;-84
2023/12/17 00:36:32;;;;;;;7.00;6.23;;;4.80;99.90;;;;;;10451084;28;20263;-84
2023/12/17 00:41:36;;;;;;;8.03;6.50;;;4.80;99.90;;;;;;10448583;28;20659;-82
2023/12/17 00:46:38;;;;;;;8.30;6.23;;;4.80;99.90;;;;;;10463486;28;20201;-84
2023/12/17 00:51:41;;;;;;;12.23;6.70;;;4.80;99.90;;;;;;10449684;28;20233;-82
2023/12/17 00:56:44;;;;;;;12.57;6.50;;;4.70;99.90;;;;;;10425769;28;20230;-82
2023/12/17 01:01:47;;;;;;;6.60;5.57;;;4.70;99.90;;;;;;10449797;28;20291;-82
2023/12/17 01:06:49;;;;;;;11.17;6.70;;;4.70;99.90;;;;;;10437301;28;20194;-82
2023/12/17 01:11:53;;;;;;;6.37;5.60;;;4.70;99.90;;;;;;10428727;28;20222;-83
2023/12/17 01:16:55;;;;;;;10.10;6.40;;;4.60;99.90;;;;;;10447187;28;20561;-84
2023/12/17 01:21:59;;;;;;;11.70;7.20;;;4.60;99.90;;;;;;10455588;28;20291;-83
2023/12/17 01:27:03;;;;;;;9.27;6.27;;;4.60;99.90;;;;;;10431866;28;20198;-83
2023/12/17 01:32:06;;;;;;;5.80;5.20;;;4.60;99.90;;;;;;10432208;28;20214;-82
2023/12/17 01:37:08;;;;;;;5.93;5.30;;;4.60;99.90;;;;;;10436171;28;20221;-83
2023/12/17 01:42:12;;;;;;;5.70;5.23;;;4.60;99.90;;;;;;10430721;28;20229;-82
2023/12/17 01:47:14;;;;;;;6.00;4.60;;;4.60;99.90;;;;;;10433722;28;20589;-83
2023/12/17 01:52:17;;;;;;;6.17;5.60;;;4.60;99.90;;;;;;10433825;28;20544;-84
2023/12/17 01:57:21;;;;;;;5.13;4.70;;;4.60;99.90;;;;;;10439882;28;20714;-82
2023/12/17 02:02:23;;;;;;;9.23;5.40;;;4.50;99.90;;;;;;10417777;28;20221;-84
2023/12/17 02:07:26;;;;;;;8.53;6.60;;;4.50;99.90;;;;;;10443204;28;20197;-83
2023/12/17 02:12:30;;;;;;;5.87;5.37;;;4.40;99.90;;;;;;10427772;28;20221;-83
2023/12/17 02:17:33;;;;;;;5.50;4.97;;;4.50;99.90;;;;;;10418906;28;20690;-82
2023/12/17 02:22:37;;;;;;;5.37;4.97;;;4.40;99.90;;;;;;10436579;28;20638;-83
2023/12/17 02:27:43;;;;;;;7.47;5.27;;;4.40;99.90;;;;;;10446387;28;20201;-83
2023/12/17 02:32:45;;;;;;;5.90;5.30;;;4.40;99.90;;;;;;10445883;28;20213;-83
2023/12/17 02:37:48;;;;;;;8.10;6.00;;;4.40;99.90;;;;;;10431035;28;20706;-84
2023/12/17 02:42:52;;;;;;;8.03;6.00;;;4.30;99.90;;;;;;10448805;28;20229;-83
2023/12/17 02:47:54;;;;;;;8.17;6.70;;;4.30;99.90;;;;;;10447483;28;20258;-82
2023/12/17 02:52:56;;;;;;;7.33;6.57;;;4.30;99.90;;;;;;10451257;28;20275;-83
2023/12/17 02:58:00;;;;;;;7.43;6.07;;;4.30;99.90;;;;;;10424677;28;20282;-82
2023/12/17 03:03:02;;;;;;;7.83;7.13;;;4.30;99.90;;;;;;10443695;28;20228;-82
2023/12/17 03:08:05;;;;;;;8.20;7.20;;;4.30;99.90;;;;;;10445565;28;20197;-83
2023/12/17 03:13:08;;;;;;;9.70;8.50;;;4.20;99.90;;;;;;10440924;28;20287;-80
2023/12/17 03:18:11;;;;;;;9.53;8.47;;;4.20;99.90;;;;;;10443940;28;20646;-83
2023/12/17 03:23:15;;;;;;;11.40;8.33;;;4.10;99.90;;;;;;10447631;28;20282;-82
2023/12/17 03:28:19;;;;;;;17.10;9.67;;;4.10;99.90;;;;;;10430683;28;20197;-84
2023/12/17 03:33:21;;;;;;;13.77;10.43;;;4.10;99.90;;;;;;10442473;28;20255;-84
2023/12/17 03:38:24;;;;;;;11.90;10.70;;;4.10;99.90;;;;;;10452805;28;20313;-83
2023/12/17 03:43:27;;;;;;;13.60;10.20;;;4.10;99.90;;;;;;10438950;28;20202;-83
2023/12/17 03:48:30;;;;;;;13.10;10.27;;;4.00;99.90;;;;;;10435426;28;20259;-84
2023/12/17 03:53:32;;;;;;;12.57;10.10;;;4.00;99.90;;;;;;10458584;28;20200;-83
2023/12/17 03:58:36;;;;;;;11.70;9.97;;;4.00;99.90;;;;;;10442603;28;20220;-82
2023/12/17 04:03:38;;;;;;;11.97;10.80;;;3.90;99.90;;;;;;10436351;28;20205;-84
2023/12/17 04:08:41;;;;;;;14.90;11.10;;;3.90;99.90;;;;;;10457929;28;20225;-85
2023/12/17 04:13:44;;;;;;;12.47;11.27;;;3.90;99.90;;;;;;10462286;28;20208;-82
2023/12/17 04:18:47;;;;;;;11.77;10.57;;;3.90;99.90;;;;;;10456098;28;20229;-84
2023/12/17 04:23:49;;;;;;;11.43;10.23;;;4.00;99.90;;;;;;10453890;28;20287;-82
2023/12/17 04:28:53;;;;;;;12.00;10.80;;;3.90;99.90;;;;;;10458997;28;20283;-84
2023/12/17 04:33:55;;;;;;;10.60;9.60;;;3.80;99.90;;;;;;10460214;28;20235;-83
2023/12/17 04:38:57;;;;;;;15.03;11.20;;;3.90;99.90;;;;;;10459294;28;20229;-84
2023/12/17 04:44:01;;;;;;;10.87;9.80;;;3.80;99.90;;;;;;10467408;28;20267;-84
2023/12/17 04:49:03;;;;;;;13.20;11.10;;;3.90;99.90;;;;;;10453799;28;20644;-84
2023/12/17 04:54:06;;;;;;;10.90;9.90;;;3.80;99.90;;;;;;10453972;22;20233;-78
2023/12/17 04:59:09;;;;;;;11.97;10.77;;;3.80;99.90;;;;;;10445324;28;20292;-78
2023/12/17 05:04:12;;;;;;;18.10;11.00;;;3.80;99.90;;;;;;10450261;28;20232;-77
2023/12/17 05:09:14;;;;;;;12.07;10.63;;;3.80;99.90;;;;;;10452272;28;20598;-78
2023/12/17 05:14:18;;;;;;;9.83;8.97;;;3.90;99.90;;;;;;10449601;28;20305;-79
2023/12/17 05:19:20;;;;;;;10.17;9.27;;;4.00;99.90;;;;;;10446911;28;20217;-78
2023/12/17 05:24:22;;;;;;;10.90;9.90;;;3.90;99.90;;;;;;10452736;28;20267;-78
2023/12/17 05:29:26;;;;;;;10.63;9.63;;;3.90;99.90;;;;;;10447739;28;20211;-78
2023/12/17 05:34:28;;;;;;;10.07;9.07;;;3.90;99.90;;;;;;10452684;28;20197;-79
2023/12/17 05:39:31;;;;;;;10.77;8.77;;;3.90;99.90;;;;;;10443832;28;20726;-79
2023/12/17 05:44:34;;;;;;;11.03;10.00;;;3.80;99.90;;;;;;10442704;28;20221;-79
2023/12/17 05:49:38;;;;;;;11.20;10.20;;;3.80;99.90;;;;;;10450348;28;20201;-79
2023/12/17 05:54:40;;;;;;;10.27;9.20;;;3.80;99.90;;;;;;10458450;28;20708;-78
2023/12/17 05:59:44;;;;;;;18.13;9.30;;;3.90;99.90;;;;;;10449578;28;20217;-79
2023/12/17 06:04:46;;;;;;;10.20;9.30;;;3.90;99.90;;;;;;10446037;28;20209;-78
2023/12/17 06:09:49;;;;;;;11.27;10.17;;;3.80;99.90;;;;;;10443557;28;20221;-78
2023/12/17 06:14:52;;;;;;;12.17;10.97;;;3.90;99.90;;;;;;10442808;28;20193;-79
2023/12/17 06:19:54;;;;;;;10.23;9.17;;;3.80;99.90;;;;;;10447721;28;20225;-78
2023/12/17 06:24:57;;;;;;;10.60;9.50;;;3.80;99.90;;;;;;10443805;28;20248;-78
2023/12/17 06:30:01;;;;;;;10.70;9.60;;;3.80;99.90;;;;;;10445859;28;20225;-78
2023/12/17 06:35:03;;;;;;;10.60;9.50;;;3.90;99.90;;;;;;10445402;28;20678;-78
2023/12/17 06:40:09;;;;;;;10.20;9.30;;;3.80;99.90;;;;;;10445933;28;20225;-78
2023/12/17 06:45:13;;;;;;;10.60;9.40;;;3.80;99.90;;;;;;10447427;28;20727;-78
2023/12/17 06:50:15;;;;;;;12.13;10.33;;;3.80;99.90;;;;;;10429067;28;20233;-78
2023/12/17 06:55:17;;;;;;;10.57;9.27;;;3.80;99.90;;;;;;10444226;28;20212;-77
2023/12/17 07:00:21;;;;;;;11.73;9.73;;;3.80;99.90;;;;;;10432267;28;20225;-78
2023/12/17 07:05:23;;;;;;;11.70;10.50;;;3.80;99.90;;;;;;10433265;28;20571;-77
2023/12/17 07:10:26;;;;;;;12.40;10.50;;;3.80;99.90;;;;;;10435822;28;20221;-78
2023/12/17 07:15:30;;;;;;;11.00;9.57;;;3.80;99.90;;;;;;10434053;28;20228;-78
2023/12/17 07:20:32;;;;;;;10.20;9.20;;;3.70;99.90;;;;;;10426149;28;20226;-77
2023/12/17 07:25:34;;;;;;;11.57;10.03;;;3.80;99.90;;;;;;10432977;28;20278;-78
2023/12/17 07:30:38;;;;;;;10.00;9.00;;;3.70;99.90;;;;;;10421320;28;20244;-78
2023/12/17 07:35:40;;;;;;;12.57;9.73;;;3.80;99.90;;;;;;10423400;28;20216;-78
2023/12/17 07:40:43;;;;;;;45.27;25.37;;;3.80;99.90;;;;;;10425324;28;20718;-78
2023/12/17 07:45:47;;;;;;;77.57;38.67;;;3.70;99.90;;;;;;10440580;28;20258;-78
2023/12/17 07:50:49;;;;;;;50.80;27.03;;;3.80;99.90;;;;;;10433583;28;20714;-79
2023/12/17 07:55:57;;;;;;;14.77;11.87;;;3.80;99.90;;;;;;10440733;28;20259;-78
2023/12/17 08:01:01;;;;;;;28.33;20.20;;;3.80;99.90;;;;;;10435790;28;20221;-78
2023/12/17 08:06:03;;;;;;;12.73;11.30;;;3.90;99.90;;;;;;10420451;28;20243;-78
2023/12/17 08:11:06;;;;;;;11.93;10.70;;;3.90;99.90;;;;;;10437727;28;20675;-78
2023/12/17 08:16:10;;;;;;;14.03;12.63;;;3.90;99.90;;;;;;10437398;28;20208;-77
2023/12/17 08:21:12;;;;;;;11.10;10.00;;;3.90;99.90;;;;;;10434547;28;20590;-79
2023/12/17 08:26:15;;;;;;;13.20;11.70;;;3.90;99.90;;;;;;10448531;28;20228;-79
2023/12/17 08:31:18;;;;;;;12.33;11.27;;;4.00;99.90;;;;;;10447706;28;20686;-79
2023/12/17 08:36:22;;;;;;;10.87;9.63;;;4.00;99.90;;;;;;10440980;28;20197;-78
2023/12/17 08:41:25;;;;;;;9.93;9.00;;;4.00;99.90;;;;;;10444231;28;20222;-77
2023/12/17 08:46:28;;;;;;;10.83;9.10;;;4.00;99.90;;;;;;10441548;28;20682;-78
2023/12/17 08:51:31;;;;;;;10.37;9.37;;;4.10;99.90;;;;;;10441953;28;20221;-78
2023/12/17 08:56:33;;;;;;;10.60;9.40;;;4.10;99.90;;;;;;10441694;28;20241;-79
2023/12/17 09:01:37;;;;;;;11.27;10.17;;;4.20;99.90;;;;;;10439247;28;20224;-79
2023/12/17 09:06:44;;;;;;;11.90;10.70;;;4.40;99.90;;;;;;10440467;28;20248;-79
2023/12/17 09:11:46;;;;;;;12.77;11.60;;;4.50;99.90;;;;;;10447875;28;20228;-78
2023/12/17 09:16:50;;;;;;;11.73;10.57;;;4.60;99.90;;;;;;10439343;28;20220;-79
2023/12/17 09:21:52;;;;;;;11.67;10.23;;;4.70;99.90;;;;;;10434843;28;20226;-78
2023/12/17 09:26:55;;;;;;;12.83;11.60;;;4.80;99.90;;;;;;10447456;28;20197;-77
2023/12/17 09:31:59;;;;;;;11.77;10.57;;;4.80;99.90;;;;;;10442781;28;20226;-79
2023/12/17 09:37:01;;;;;;;11.60;10.40;;;4.80;99.90;;;;;;10428108;28;20224;-79
2023/12/17 09:42:04;;;;;;;14.57;13.13;;;4.90;99.90;;;;;;10428933;28;20210;-78
2023/12/17 09:47:08;;;;;;;15.57;13.90;;;5.00;99.90;;;;;;10447859;28;20251;-79
2023/12/17 09:52:13;;;;;;;15.73;13.93;;;5.10;99.90;;;;;;10440034;28;20225;-78
2023/12/17 09:57:17;;;;;;;15.80;13.93;;;5.20;99.90;;;;;;10447531;28;20229;-78
2023/12/17 10:02:21;;;;;;;16.37;14.50;;;5.30;99.90;;;;;;10444180;28;20217;-78
2023/12/17 10:07:23;;;;;;;16.27;14.57;;;5.40;99.90;;;;;;10444763;28;20693;-78
2023/12/17 10:12:27;;;;;;;15.63;13.97;;;5.50;99.90;;;;;;10447340;28;20217;-79
2023/12/17 10:17:31;;;;;;;16.87;15.20;;;5.60;99.90;;;;;;10446750;28;20214;-81
2023/12/17 10:22:33;;;;;;;14.97;13.37;;;5.60;99.90;;;;;;10454845;28;20230;-81
2023/12/17 10:27:38;;;;;;;17.10;14.07;;;5.70;99.90;;;;;;10444762;28;20550;-79
2023/12/17 10:32:43;;;;;;;16.43;14.67;;;5.70;99.90;;;;;;10446594;28;20266;-79
2023/12/17 10:37:46;;;;;;;16.43;14.63;;;5.80;99.90;;;;;;10445300;28;20224;-78
2023/12/17 10:42:50;;;;;;;15.13;13.80;;;5.90;99.90;;;;;;10432133;28;20228;-79
2023/12/17 10:47:56;;;;;;;14.37;12.87;;;5.90;99.90;;;;;;10427189;28;20236;-79
2023/12/17 10:52:58;;;;;;;15.17;13.47;;;6.00;99.90;;;;;;10434841;28;20249;-79
2023/12/17 10:58:05;;;;;;;15.03;13.13;;;6.10;99.90;;;;;;10447828;28;20228;-78
2023/12/17 11:03:11;;;;;;;16.40;12.70;;;6.10;99.90;;;;;;10441598;28;20226;-79
2023/12/17 11:08:14;;;;;;;16.23;13.03;;;6.20;99.90;;;;;;10444475;28;20538;-79
2023/12/17 11:13:16;;;;;;;13.60;12.20;;;6.30;99.90;;;;;;10452627;28;20214;-78
2023/12/17 11:18:23;;;;;;;15.17;13.67;;;6.40;99.90;;;;;;10449556;28;20714;-80
2023/12/17 11:23:27;;;;;;;15.87;14.07;;;6.50;99.90;;;;;;10448869;28;20706;-79
2023/12/17 11:28:30;;;;;;;14.90;13.37;;;6.50;99.90;;;;;;10450545;28;20225;-80
2023/12/17 11:33:34;;;;;;;15.47;13.93;;;6.60;99.90;;;;;;10449796;28;20220;-79
2023/12/17 11:38:37;;;;;;;14.03;12.53;;;6.70;99.90;;;;;;10449773;28;20212;-79
2023/12/17 11:43:39;;;;;;;13.27;12.03;;;6.80;99.90;;;;;;10434027;28;20232;-79
2023/12/17 11:48:43;;;;;;;15.47;13.87;;;6.80;99.90;;;;;;10452376;28;20894;-80
2023/12/17 11:53:46;;;;;;;15.77;14.27;;;6.90;99.90;;;;;;10453547;28;20237;-80
2023/12/17 11:58:49;;;;;;;13.27;11.93;;;7.00;99.90;;;;;;10460691;28;20275;-79
2023/12/17 12:03:57;;;;;;;13.63;12.20;;;7.00;99.90;;;;;;10455285;28;20222;-79
2023/12/17 12:09:00;;;;;;;18.70;12.23;;;7.10;99.90;;;;;;10454096;28;20201;-79
2023/12/17 12:14:02;;;;;;;12.53;11.27;;;7.10;99.90;;;;;;10438109;28;20225;-79
2023/12/17 12:19:06;;;;;;;14.60;13.07;;;7.20;99.90;;;;;;10451743;28;20225;-79
2023/12/17 12:24:10;;;;;;;12.97;11.77;;;7.20;99.90;;;;;;10454043;28;20226;-77
2023/12/17 12:29:13;;;;;;;13.97;12.60;;;7.30;99.90;;;;;;10455864;28;20202;-79
2023/12/17 12:34:17;;;;;;;13.20;11.67;;;7.20;99.90;;;;;;10442300;28;20213;-79
2023/12/17 12:39:21;;;;;;;14.17;12.77;;;7.30;99.90;;;;;;10456588;28;20225;-78
2023/12/17 12:44:23;;;;;;;15.73;14.20;;;7.30;99.90;;;;;;10433978;28;20213;-78
2023/12/17 12:49:29;;;;;;;16.30;14.70;;;7.40;99.90;;;;;;10447594;28;20247;-79
2023/12/17 12:54:31;;;;;;;16.37;14.70;;;7.40;99.90;;;;;;10454044;28;20260;-77
2023/12/17 12:59:34;;;;;;;14.57;13.17;;;7.50;99.90;;;;;;10454759;28;20472;-79
2023/12/17 13:04:38;;;;;;;13.60;12.30;;;7.40;99.90;;;;;;10451049;28;20198;-79
2023/12/17 13:09:42;;;;;;;15.23;13.63;;;7.40;99.90;;;;;;10425317;28;20619;-79
2023/12/17 13:14:44;;;;;;;15.53;13.70;;;7.40;99.90;;;;;;10450198;28;20201;-80
2023/12/17 13:19:48;;;;;;;13.50;12.20;;;7.40;99.90;;;;;;10444652;28;20245;-80
2023/12/17 13:24:51;;;;;;;14.20;12.80;;;7.40;99.90;;;;;;10449876;28;20202;-79
2023/12/17 13:29:53;;;;;;;13.17;11.87;;;7.40;99.90;;;;;;10457295;28;20229;-79
2023/12/17 13:34:57;;;;;;;15.40;13.20;;;7.40;99.90;;;;;;10451343;28;20206;-80
2023/12/17 13:39:59;;;;;;;14.90;13.17;;;7.40;99.90;;;;;;10454898;28;20232;-79
2023/12/17 13:45:02;;;;;;;19.40;12.00;;;7.40;99.90;;;;;;10444570;28;20213;-78
2023/12/17 13:50:07;;;;;;;14.00;12.30;;;7.30;99.90;;;;;;10418791;28;20287;-78
2023/12/17 13:55:10;;;;;;;13.10;11.80;;;7.20;99.90;;;;;;10444125;28;20213;-79
2023/12/17 14:00:14;;;;;;;12.80;11.50;;;7.10;99.90;;;;;;10443755;28;20230;-79
2023/12/17 14:05:19;;;;;;;12.77;11.47;;;7.10;99.90;;;;;;10444661;28;20206;-79
2023/12/17 14:10:22;;;;;;;11.80;10.60;;;7.10;99.90;;;;;;10440121;28;20217;-78
2023/12/17 14:15:24;;;;;;;16.17;13.10;;;7.20;99.90;;;;;;10433618;28;20573;-79
2023/12/17 14:20:28;;;;;;;16.20;13.97;;;7.10;99.90;;;;;;10429801;28;20234;-78
2023/12/17 14:25:30;;;;;;;13.47;12.17;;;7.00;99.90;;;;;;10446107;28;20228;-79
2023/12/17 14:30:33;;;;;;;14.03;12.70;;;7.00;99.90;;;;;;10443947;28;20224;-76
2023/12/17 14:35:37;;;;;;;14.97;13.47;;;6.90;99.90;;;;;;10441780;28;20607;-78
2023/12/17 14:40:40;;;;;;;14.27;12.77;;;6.80;99.90;;;;;;10442774;28;20229;-78
2023/12/17 14:45:42;;;;;;;14.00;12.50;;;6.80;99.90;;;;;;10445547;28;20220;-79
2023/12/17 14:50:46;;;;;;;16.90;12.70;;;6.80;99.90;;;;;;10437689;28;20234;-78
2023/12/17 14:55:49;;;;;;;13.53;12.13;;;6.70;99.90;;;;;;10427268;28;20217;-78
2023/12/17 15:00:51;;;;;;;16.50;12.97;;;6.70;99.90;;;;;;10433786;28;20229;-78
2023/12/17 15:05:55;;;;;;;13.90;12.17;;;6.70;99.90;;;;;;10432205;28;20201;-78
2023/12/17 15:10:58;;;;;;;15.47;13.60;;;6.60;99.90;;;;;;10424026;28;20224;-78
2023/12/17 15:16:00;;;;;;;15.90;14.23;;;6.60;99.90;;;;;;10447509;28;20202;-79
2023/12/17 15:21:04;;;;;;;14.63;13.13;;;6.50;99.90;;;;;;10435372;28;20214;-79
2023/12/17 15:26:06;;;;;;;15.40;13.90;;;6.50;99.90;;;;;;10448417;28;20216;-80
2023/12/17 15:31:13;;;;;;;15.73;13.77;;;6.40;99.90;;;;;;10433482;28;20246;-80
2023/12/17 15:36:17;;;;;;;20.17;14.20;;;6.30;99.90;;;;;;10456861;28;20229;-79
2023/12/17 15:41:20;;;;;;;18.67;15.80;;;6.20;99.90;;;;;;10431519;28;20230;-80
2023/12/17 15:46:26;;;;;;;18.20;16.40;;;6.10;99.90;;;;;;10449997;28;20210;-80
2023/12/17 15:51:30;;;;;;;17.57;15.83;;;6.00;99.90;;;;;;10449056;28;20662;-81
2023/12/17 15:56:32;;;;;;;19.17;17.30;;;6.00;99.90;;;;;;10456481;28;20209;-81
2023/12/17 16:01:35;;;;;;;16.80;15.00;;;5.90;99.90;;;;;;10454376;28;20231;-81
2023/12/17 16:06:39;;;;;;;16.70;14.97;;;5.90;99.90;;;;;;10447910;28;20198;-82
2023/12/17 16:11:41;;;;;;;18.23;15.30;;;5.90;99.90;;;;;;10438953;28;20214;-81
2023/12/17 16:16:43;;;;;;;16.10;14.40;;;5.90;99.90;;;;;;10437868;28;20228;-81
2023/12/17 16:21:50;;;;;;;18.40;16.57;;;5.80;99.90;;;;;;10446270;28;20226;-81
2023/12/17 16:26:53;;;;;;;15.90;14.13;;;5.70;99.90;;;;;;10441874;28;20205;-82
2023/12/17 16:31:55;;;;;;;16.50;14.50;;;5.70;99.90;;;;;;10439953;28;20687;-81
2023/12/17 16:37:00;;;;;;;16.93;15.10;;;5.50;99.90;;;;;;10439548;28;20206;-81
2023/12/17 16:42:03;;;;;;;20.37;15.80;;;5.50;99.90;;;;;;10427268;28;20226;-80
2023/12/17 16:47:05;;;;;;;16.60;14.93;;;5.40;99.90;;;;;;10440881;28;20595;-81
2023/12/17 16:52:10;;;;;;;15.03;13.60;;;5.50;99.90;;;;;;10463778;28;20229;-80
2023/12/17 16:57:12;;;;;;;16.27;14.40;;;5.50;99.90;;;;;;10454812;28;20213;-80
2023/12/17 17:02:15;;;;;;;41.33;36.97;;;5.50;99.90;;;;;;10458449;28;20221;-78
2023/12/17 17:07:19;;;;;;;51.00;44.87;;;5.40;99.90;;;;;;10460811;28;20197;-78
2023/12/17 17:12:21;;;;;;;33.47;29.50;;;5.50;99.90;;;;;;10452148;28;20228;-80
2023/12/17 17:17:23;;;;;;;20.03;17.97;;;5.50;99.90;;;;;;10444975;28;20260;-78
2023/12/17 17:22:27;;;;;;;17.53;15.77;;;5.40;99.90;;;;;;10443226;28;20260;-78
2023/12/17 17:27:30;;;;;;;19.27;17.17;;;5.40;99.90;;;;;;10444447;28;20228;-79
2023/12/17 17:32:32;;;;;;;14.93;12.70;;;5.30;99.90;;;;;;10430776;28;20284;-78
2023/12/17 17:37:36;;;;;;;20.73;18.60;;;5.30;99.90;;;;;;10445308;28;20225;-78
2023/12/17 17:42:39;;;;;;;16.10;14.43;;;5.30;99.90;;;;;;10451326;28;20248;-78
2023/12/17 17:47:41;;;;;;;14.33;13.00;;;5.30;99.90;;;;;;10435357;28;20288;-78
2023/12/17 17:52:45;;;;;;;15.10;13.53;;;5.20;99.90;;;;;;10442975;28;20748;-79
2023/12/17 17:57:47;;;;;;;13.37;12.03;;;5.20;99.90;;;;;;10441686;28;20274;-79
2023/12/17 18:02:50;;;;;;;13.10;11.60;;;5.20;99.90;;;;;;10444823;28;20229;-79
2023/12/17 18:07:54;;;;;;;11.27;10.20;;;5.20;99.90;;;;;;10450179;28;20682;-78
2023/12/17 18:12:57;;;;;;;13.10;11.40;;;5.10;99.90;;;;;;10444936;28;20213;-79
2023/12/17 18:18:00;;;;;;;13.80;12.40;;;5.10;99.90;;;;;;10439521;28;20209;-79
2023/12/17 18:23:04;;;;;;;12.90;11.60;;;5.00;99.90;;;;;;10440092;28;20214;-78
2023/12/17 18:28:07;;;;;;;18.80;16.23;;;5.00;99.90;;;;;;10445506;28;20201;-79
2023/12/17 18:33:09;;;;;;;11.93;10.60;;;5.10;99.90;;;;;;10444983;28;20217;-79
2023/12/17 18:38:13;;;;;;;12.77;10.13;;;5.10;99.90;;;;;;10444582;28;20213;-80
2023/12/17 18:43:16;;;;;;;12.63;11.10;;;5.10;99.90;;;;;;10450857;28;20229;-79
2023/12/17 18:48:18;;;;;;;9.80;8.77;;;5.00;99.90;;;;;;10436656;28;20198;-78
2023/12/17 18:53:22;;;;;;;10.60;9.50;;;5.00;99.90;;;;;;10432192;28;20232;-79
2023/12/17 18:58:24;;;;;;;10.83;9.73;;;5.00;99.90;;;;;;10439520;28;20192;-79
2023/12/17 19:03:27;;;;;;;15.43;13.07;;;5.00;99.90;;;;;;10441944;28;20279;-79
2023/12/17 19:08:30;;;;;;;15.87;11.37;;;5.00;99.90;;;;;;10442888;28;20213;-78
2023/12/17 19:13:33;;;;;;;11.50;10.30;;;5.00;99.90;;;;;;10439181;28;20221;-77
2023/12/17 19:18:37;;;;;;;13.37;9.57;;;5.00;99.90;;;;;;10424619;28;20291;-79
2023/12/17 19:23:41;;;;;;;12.67;11.47;;;4.90;99.90;;;;;;10433711;28;20639;-78
2023/12/17 19:28:43;;;;;;;10.67;9.60;;;4.90;99.90;;;;;;10421530;28;20310;-80
2023/12/17 19:33:46;;;;;;;13.00;11.70;;;4.90;99.90;;;;;;10428669;28;20226;-78
2023/12/17 19:38:53;;;;;;;16.57;14.93;;;4.80;99.90;;;;;;10438845;28;20201;-78
2023/12/17 19:43:55;;;;;;;12.00;10.80;;;4.80;99.90;;;;;;10432621;28;20233;-77
2023/12/17 19:48:59;;;;;;;13.23;11.93;;;4.80;99.90;;;;;;10432687;28;20665;-79
2023/12/17 19:54:02;;;;;;;13.87;12.30;;;4.80;99.90;;;;;;10442906;28;20244;-79
2023/12/17 19:59:05;;;;;;;19.73;17.57;;;4.70;99.90;;;;;;10433346;28;20682;-79
2023/12/17 20:04:07;;;;;;;20.90;17.60;;;4.70;99.90;;;;;;10448877;28;20225;-79
2023/12/17 20:09:11;;;;;;;21.60;17.80;;;4.70;99.90;;;;;;10433943;28;20526;-79
2023/12/17 20:14:14;;;;;;;42.30;26.00;;;4.50;99.90;;;;;;10437085;28;20292;-79
2023/12/17 20:19:16;;;;;;;24.63;18.50;;;4.50;99.90;;;;;;10429821;28;20213;-79
2023/12/17 20:24:22;;;;;;;20.60;17.27;;;4.50;99.90;;;;;;10456278;28;20225;-79
2023/12/17 20:29:24;;;;;;;19.50;14.23;;;4.60;99.90;;;;;;10457267;28;20308;-79
2023/12/17 20:34:27;;;;;;;18.40;15.07;;;4.50;99.90;;;;;;10453133;28;20232;-78
2023/12/17 20:39:31;;;;;;;19.60;14.17;;;4.50;99.90;;;;;;10456063;28;20216;-78
2023/12/17 20:44:35;;;;;;;14.30;12.67;;;4.40;99.90;;;;;;10446633;28;20569;-78
2023/12/17 20:49:37;;;;;;;15.63;14.00;;;4.30;99.90;;;;;;10456479;28;20227;-78
2023/12/17 20:54:41;;;;;;;14.27;12.77;;;4.30;99.90;;;;;;10466851;28;20757;-79
2023/12/17 20:59:43;;;;;;;15.13;13.57;;;4.20;99.90;;;;;;10447860;28;20490;-78
2023/12/17 21:04:45;;;;;;;14.73;13.23;;;4.30;99.90;;;;;;10452072;28;20213;-78
2023/12/17 21:09:50;;;;;;;16.63;14.77;;;4.30;99.90;;;;;;10452166;28;20347;-78
2023/12/17 21:14:53;;;;;;;15.23;13.43;;;4.40;99.90;;;;;;10449838;28;20197;-78
2023/12/17 21:19:55;;;;;;;15.60;13.10;;;4.40;99.90;;;;;;10446143;28;20236;-79
2023/12/17 21:24:59;;;;;;;14.17;12.73;;;4.30;99.90;;;;;;10450402;28;20588;-78
2023/12/17 21:30:02;;;;;;;14.33;12.80;;;4.20;99.90;;;;;;10449342;28;20589;-81
2023/12/17 21:35:06;;;;;;;13.73;12.33;;;4.20;99.90;;;;;;10446894;28;20201;-78
2023/12/17 21:40:10;;;;;;;19.17;13.17;;;4.10;99.90;;;;;;10443171;28;20224;-77
2023/12/17 21:45:13;;;;;;;17.57;14.60;;;4.00;99.90;;;;;;10444106;28;20612;-78
2023/12/17 21:50:15;;;;;;;14.93;13.43;;;4.00;99.90;;;;;;10422236;28;20259;-78
2023/12/17 21:55:19;;;;;;;15.63;12.90;;;4.10;99.90;;;;;;10415777;28;20202;-78
2023/12/17 22:00:22;;;;;;;15.83;14.13;;;4.10;99.90;;;;;;10417087;28;20240;-77
2023/12/17 22:05:24;;;;;;;18.37;14.67;;;4.10;99.90;;;;;;10413834;28;20198;-78
2023/12/17 22:10:28;;;;;;;18.30;15.53;;;4.20;99.90;;;;;;10419424;28;20226;-78
2023/12/17 22:15:30;;;;;;;16.00;14.30;;;4.00;99.90;;;;;;10414794;28;20493;-78
2023/12/17 22:20:32;;;;;;;17.87;13.77;;;4.10;99.90;;;;;;10416789;28;20317;-78
2023/12/17 22:25:37;;;;;;;14.43;12.93;;;4.10;99.90;;;;;;10427138;28;20559;-78
2023/12/17 22:30:39;;;;;;;14.60;13.10;;;4.10;99.90;;;;;;10421321;28;20225;-77
2023/12/17 22:35:42;;;;;;;13.77;12.37;;;4.20;99.90;;;;;;10426468;28;20585;-77
2023/12/17 22:40:46;;;;;;;15.10;13.60;;;4.20;99.90;;;;;;10419503;28;20217;-78
2023/12/17 22:45:49;;;;;;;16.80;14.03;;;4.10;99.90;;;;;;10426687;28;20735;-78
2023/12/17 22:50:52;;;;;;;11.90;10.70;;;4.10;99.90;;;;;;10417142;28;20695;-79
2023/12/17 22:55:55;;;;;;;11.37;10.30;;;4.10;99.90;;;;;;10422034;28;20228;-79
2023/12/17 23:00:58;;;;;;;12.20;10.53;;;4.10;99.90;;;;;;10419425;28;20585;-79
2023/12/17 23:06:00;;;;;;;13.93;12.43;;;4.10;99.90;;;;;;10432314;28;20586;-79
2023/12/17 23:11:04;;;;;;;12.20;11.00;;;4.10;99.90;;;;;;10424376;28;20213;-79
2023/12/17 23:16:06;;;;;;;13.50;11.43;;;4.10;99.90;;;;;;10433921;28;20263;-78
2023/12/17 23:21:09;;;;;;;13.13;10.73;;;4.10;99.90;;;;;;10404887;28;20285;-79
2023/12/17 23:26:13;;;;;;;12.20;11.00;;;4.10;99.90;;;;;;10432112;28;20279;-79
2023/12/17 23:31:15;;;;;;;12.30;11.10;;;4.10;99.90;;;;;;10422423;28;20262;-78
2023/12/17 23:36:17;;;;;;;13.13;11.70;;;4.10;99.90;;;;;;10431285;28;20758;-78
2023/12/17 23:41:21;;;;;;;10.93;9.90;;;4.00;99.90;;;;;;10423416;28;20217;-79
2023/12/17 23:46:23;;;;;;;12.23;10.93;;;4.00;99.90;;;;;;10434100;28;20204;-79
2023/12/17 23:51:26;;;;;;;12.70;11.40;;;4.00;99.90;;;;;;10426575;28;20222;-79
2023/12/17 23:56:29;;;;;;;13.07;11.77;;;4.00;99.90;;;;;;10440373;28;20689;-78
